createdAt,value
2018-06-11T00:01:41.707Z,17.37
2018-06-11T00:04:09.952Z,17.93
2018-06-11T00:06:38.148Z,17.37
2018-06-11T00:09:07.065Z,17.13
2018-06-11T00:11:35.548Z,18.63
2018-06-11T00:14:03.751Z,33.40
2018-06-11T00:16:31.976Z,18.63
2018-06-11T00:19:00.344Z,17.90
2018-06-11T00:21:28.734Z,17.20
2018-06-11T00:23:56.925Z,18.37
2018-06-11T00:26:25.253Z,16.20
2018-06-11T00:28:53.525Z,21.00
2018-06-11T00:31:21.697Z,19.30
2018-06-11T00:33:49.961Z,17.90
2018-06-11T00:36:18.252Z,17.87
2018-06-11T00:38:46.394Z,18.20
2018-06-11T00:41:14.831Z,16.63
2018-06-11T00:43:43.024Z,15.47
2018-06-11T00:46:11.237Z,15.10
2018-06-11T00:48:39.467Z,15.93
2018-06-11T00:51:07.671Z,16.97
2018-06-11T00:53:36.006Z,16.50
2018-06-11T00:56:05.427Z,18.20
2018-06-11T00:58:33.668Z,15.67
2018-06-11T01:01:01.892Z,15.77
2018-06-11T01:03:30.427Z,14.20
2018-06-11T01:05:58.646Z,15.63
2018-06-11T01:08:26.832Z,16.87
2018-06-11T01:10:55.268Z,16.50
2018-06-11T01:13:23.674Z,15.03
2018-06-11T01:15:51.884Z,15.97
2018-06-11T01:18:20.204Z,14.93
2018-06-11T01:20:49.211Z,15.87
2018-06-11T01:23:17.453Z,15.33
2018-06-11T01:25:45.659Z,15.07
2018-06-11T01:28:14.084Z,15.83
2018-06-11T01:30:42.281Z,15.00
2018-06-11T01:33:10.455Z,15.17
2018-06-11T01:35:38.688Z,17.20
2018-06-11T01:38:06.853Z,16.73
2018-06-11T01:40:35.000Z,54.53
2018-06-11T01:43:03.301Z,25.37
2018-06-11T01:45:31.637Z,16.27
2018-06-11T01:47:59.815Z,15.57
2018-06-11T01:50:27.987Z,16.73
2018-06-11T01:52:56.385Z,37.00
2018-06-11T01:55:24.921Z,34.63
2018-06-11T01:57:53.240Z,25.47
2018-06-11T02:00:21.424Z,21.20
2018-06-11T02:02:50.437Z,17.83
2018-06-11T02:05:18.795Z,17.30
2018-06-11T02:07:46.946Z,16.03
2018-06-11T02:10:15.156Z,16.23
2018-06-11T02:12:43.324Z,15.33
2018-06-11T02:15:11.488Z,15.80
2018-06-11T02:17:39.806Z,16.87
2018-06-11T02:20:07.943Z,15.40
2018-06-11T02:22:36.119Z,16.17
2018-06-11T02:25:04.288Z,15.43
2018-06-11T02:27:32.460Z,15.77
2018-06-11T02:30:00.713Z,14.30
2018-06-11T02:32:29.034Z,15.13
2018-06-11T02:34:57.191Z,15.57
2018-06-11T02:37:25.346Z,15.57
2018-06-11T02:39:53.552Z,16.30
2018-06-11T02:42:21.887Z,15.87
2018-06-11T02:44:50.015Z,14.50
2018-06-11T02:47:18.134Z,16.07
2018-06-11T02:49:46.302Z,16.43
2018-06-11T02:52:14.541Z,15.10
2018-06-11T02:54:42.700Z,15.57
2018-06-11T02:57:10.928Z,15.50
2018-06-11T02:59:39.103Z,15.03
2018-06-11T03:02:07.302Z,14.20
2018-06-11T03:04:35.469Z,14.30
2018-06-11T03:07:03.671Z,13.47
2018-06-11T03:09:32.044Z,13.33
2018-06-11T03:12:00.262Z,12.23
2018-06-11T03:14:28.456Z,12.90
2018-06-11T03:16:56.662Z,17.27
2018-06-11T03:19:24.832Z,24.63
2018-06-11T03:21:53.025Z,42.27
2018-06-11T03:24:21.232Z,15.13
2018-06-11T03:26:49.409Z,29.90
2018-06-11T03:29:17.555Z,17.43
2018-06-11T03:31:45.755Z,19.50
2018-06-11T03:34:13.910Z,16.00
2018-06-11T03:36:42.134Z,12.87
2018-06-11T03:39:10.312Z,12.63
2018-06-11T03:41:38.514Z,13.50
2018-06-11T03:44:06.695Z,14.30
2018-06-11T03:46:35.062Z,14.60
2018-06-11T03:49:03.263Z,14.10
2018-06-11T03:51:31.449Z,14.73
2018-06-11T03:53:59.662Z,14.43
2018-06-11T03:56:27.967Z,30.93
2018-06-11T03:58:56.201Z,24.00
2018-06-11T04:01:24.338Z,26.07
2018-06-11T04:03:52.540Z,18.23
2018-06-11T04:06:20.832Z,15.83
2018-06-11T04:08:49.179Z,19.57
2018-06-11T04:11:17.302Z,17.07
2018-06-11T04:13:45.520Z,14.63
2018-06-11T04:16:13.772Z,14.70
2018-06-11T04:18:41.957Z,13.10
2018-06-11T04:21:10.143Z,13.03
2018-06-11T04:23:38.820Z,11.83
2018-06-11T04:26:07.022Z,10.87
2018-06-11T04:28:35.200Z,12.70
2018-06-11T04:31:03.463Z,11.33
2018-06-11T04:33:31.656Z,11.40
2018-06-11T04:35:59.852Z,11.63
2018-06-11T04:38:28.032Z,14.13
2018-06-11T04:40:56.241Z,12.03
2018-06-11T04:43:24.533Z,16.23
2018-06-11T04:45:52.725Z,12.43
2018-06-11T04:48:20.907Z,11.90
2018-06-11T04:50:49.133Z,13.00
2018-06-11T04:53:17.299Z,13.50
2018-06-11T04:55:45.496Z,13.70
2018-06-11T04:58:13.682Z,12.43
2018-06-11T05:00:42.148Z,14.93
2018-06-11T05:03:10.612Z,13.70
2018-06-11T05:05:38.781Z,13.10
2018-06-11T05:08:06.954Z,13.20
2018-06-11T05:10:35.137Z,13.90
2018-06-11T05:13:03.342Z,14.30
2018-06-11T05:15:31.527Z,14.77
2018-06-11T05:17:59.933Z,15.37
2018-06-11T05:20:28.080Z,15.10
2018-06-11T05:22:56.376Z,15.93
2018-06-11T05:25:24.519Z,16.27
2018-06-11T05:27:52.855Z,18.83
2018-06-11T05:30:21.016Z,24.70
2018-06-11T05:32:49.172Z,24.37
2018-06-11T05:35:17.374Z,28.50
2018-06-11T05:37:46.038Z,27.57
2018-06-11T05:40:14.243Z,27.27
2018-06-11T05:42:42.363Z,27.47
2018-06-11T05:45:10.521Z,20.13
2018-06-11T05:47:38.748Z,16.50
2018-06-11T05:50:06.924Z,15.53
2018-06-11T05:52:35.231Z,14.87
2018-06-11T05:55:03.424Z,13.30
2018-06-11T05:57:31.593Z,14.33
2018-06-11T05:59:59.756Z,14.37
2018-06-11T06:02:27.944Z,15.53
2018-06-11T06:04:56.084Z,15.10
2018-06-11T06:07:24.224Z,14.37
2018-06-11T06:09:52.502Z,15.47
2018-06-11T06:12:20.680Z,15.83
2018-06-11T06:14:49.254Z,15.87
2018-06-11T06:17:17.428Z,14.77
2018-06-11T06:19:45.635Z,17.30
2018-06-11T06:22:13.798Z,18.90
2018-06-11T06:24:41.973Z,17.20
2018-06-11T06:27:10.183Z,16.57
2018-06-11T06:29:38.445Z,16.93
2018-06-11T06:32:06.653Z,16.87
2018-06-11T06:34:34.908Z,17.80
2018-06-11T06:37:03.010Z,17.30
2018-06-11T06:39:31.165Z,16.57
2018-06-11T06:41:59.309Z,17.27
2018-06-11T06:44:27.484Z,16.63
2018-06-11T06:46:55.693Z,17.50
2018-06-11T06:49:23.919Z,16.87
2018-06-11T06:51:52.268Z,17.13
2018-06-11T06:54:20.414Z,17.67
2018-06-11T06:56:48.621Z,16.10
2018-06-11T06:59:16.865Z,16.43
2018-06-11T07:01:45.032Z,15.80
2018-06-11T07:04:13.220Z,16.80
2018-06-11T07:06:47.906Z,16.97
2018-06-11T07:09:16.072Z,15.83
2018-06-11T07:11:44.278Z,15.73
2018-06-11T07:14:12.501Z,16.00
2018-06-11T07:16:40.761Z,14.13
2018-06-11T07:19:08.957Z,14.67
2018-06-11T07:21:37.151Z,14.67
2018-06-11T07:24:05.325Z,15.03
2018-06-11T07:26:33.477Z,14.90
2018-06-11T07:29:01.745Z,13.90
2018-06-11T07:31:29.937Z,14.23
2018-06-11T07:33:58.163Z,15.13
2018-06-11T07:36:26.435Z,15.93
2018-06-11T07:38:54.643Z,16.17
2018-06-11T07:41:22.830Z,15.37
2018-06-11T07:43:51.107Z,16.23
2018-06-11T07:46:19.329Z,16.17
2018-06-11T07:48:47.603Z,15.10
2018-06-11T07:51:15.739Z,14.50
2018-06-11T07:53:44.052Z,15.67
2018-06-11T07:56:12.256Z,14.70
2018-06-11T07:58:40.419Z,13.67
2018-06-11T08:01:08.587Z,14.57
2018-06-11T08:03:36.840Z,13.03
2018-06-11T08:06:05.062Z,14.20
2018-06-11T08:08:33.139Z,12.10
2018-06-11T08:11:01.325Z,11.40
2018-06-11T08:13:29.504Z,11.77
2018-06-11T08:15:57.776Z,11.70
2018-06-11T08:18:25.968Z,12.53
2018-06-11T08:20:54.464Z,11.20
2018-06-11T08:23:22.603Z,10.07
2018-06-11T08:25:50.883Z,10.33
2018-06-11T08:28:19.056Z,9.30
2018-06-11T08:30:47.341Z,10.93
2018-06-11T08:33:15.662Z,9.47
2018-06-11T08:35:43.893Z,9.83
2018-06-11T08:38:12.080Z,10.17
2018-06-11T08:40:40.266Z,9.87
2018-06-11T08:43:08.630Z,9.13
2018-06-11T08:45:36.857Z,8.40
2018-06-11T08:48:05.215Z,7.63
2018-06-11T08:50:33.457Z,7.13
2018-06-11T08:53:02.135Z,7.90
2018-06-11T08:55:30.338Z,8.00
2018-06-11T08:57:58.551Z,7.73
2018-06-11T09:00:26.921Z,6.60
2018-06-11T09:02:55.160Z,5.83
2018-06-11T09:05:23.384Z,6.53
2018-06-11T09:07:51.583Z,4.70
2018-06-11T09:10:19.760Z,9.37
2018-06-11T09:12:47.986Z,5.27
2018-06-11T09:15:16.179Z,4.70
2018-06-11T09:17:44.559Z,12.13
2018-06-11T09:20:12.948Z,4.90
2018-06-11T09:22:41.206Z,5.17
2018-06-11T09:25:09.468Z,4.70
2018-06-11T09:27:37.653Z,3.90
2018-06-11T09:30:06.092Z,3.43
2018-06-11T09:32:34.298Z,3.93
2018-06-11T09:35:02.590Z,3.70
2018-06-11T09:37:30.852Z,3.53
2018-06-11T09:39:58.979Z,4.20
2018-06-11T09:42:27.263Z,3.53
2018-06-11T09:44:55.414Z,3.50
2018-06-11T09:47:23.598Z,4.40
2018-06-11T09:49:51.716Z,4.50
2018-06-11T09:52:19.833Z,4.13
2018-06-11T09:54:47.961Z,3.53
2018-06-11T09:57:16.044Z,3.90
2018-06-11T09:59:44.189Z,3.90
2018-06-11T10:02:12.311Z,3.90
2018-06-11T10:04:40.554Z,3.93
2018-06-11T10:07:08.897Z,3.60
2018-06-11T10:09:37.146Z,4.20
2018-06-11T10:12:05.314Z,3.80
2018-06-11T10:14:33.457Z,3.60
2018-06-11T10:17:01.683Z,3.93
2018-06-11T10:19:29.903Z,3.80
2018-06-11T10:21:58.053Z,3.70
2018-06-11T10:24:26.307Z,5.27
2018-06-11T10:26:54.404Z,3.60
2018-06-11T10:29:22.588Z,4.23
2018-06-11T10:31:50.752Z,3.87
2018-06-11T10:34:18.853Z,3.63
2018-06-11T10:36:47.028Z,4.10
2018-06-11T10:39:15.228Z,3.40
2018-06-11T10:41:43.376Z,4.07
2018-06-11T10:44:11.595Z,4.00
2018-06-11T10:46:39.771Z,4.00
2018-06-11T10:49:07.912Z,5.20
2018-06-11T10:51:36.119Z,4.30
2018-06-11T10:54:04.287Z,6.67
2018-06-11T10:56:32.433Z,4.50
2018-06-11T10:59:00.557Z,3.80
2018-06-11T11:01:28.764Z,4.63
2018-06-11T11:03:56.955Z,3.87
2018-06-11T11:06:25.345Z,22.67
2018-06-11T11:08:53.648Z,4.03
2018-06-11T11:11:21.798Z,4.20
2018-06-11T11:13:50.022Z,4.57
2018-06-11T11:16:18.171Z,4.60
2018-06-11T11:18:46.388Z,4.63
2018-06-11T11:21:14.660Z,4.40
2018-06-11T11:23:42.849Z,4.80
2018-06-11T11:26:11.192Z,4.80
2018-06-11T11:28:39.412Z,4.83
2018-06-11T11:31:07.669Z,4.03
2018-06-11T11:33:36.076Z,4.00
2018-06-11T11:36:04.392Z,4.27
2018-06-11T11:38:32.686Z,3.77
2018-06-11T11:41:00.948Z,4.60
2018-06-11T11:43:29.438Z,6.23
2018-06-11T11:45:57.684Z,4.87
2018-06-11T11:48:25.827Z,5.33
2018-06-11T11:50:54.076Z,5.10
2018-06-11T11:53:22.228Z,4.60
2018-06-11T11:55:50.464Z,4.83
2018-06-11T11:58:18.792Z,6.70
2018-06-11T12:00:46.988Z,5.03
2018-06-11T12:03:15.185Z,4.73
2018-06-11T12:05:43.355Z,4.07
2018-06-11T12:08:11.489Z,4.53
2018-06-11T12:10:39.697Z,3.97
2018-06-11T12:13:07.869Z,4.27
2018-06-11T12:15:36.146Z,4.73
2018-06-11T12:18:04.281Z,4.07
2018-06-11T12:20:32.428Z,4.03
2018-06-11T12:23:00.551Z,4.40
2018-06-11T12:25:28.780Z,4.43
2018-06-11T12:27:56.956Z,4.30
2018-06-11T12:30:25.134Z,5.47
2018-06-11T12:32:53.305Z,5.53
2018-06-11T12:35:21.790Z,4.70
2018-06-11T12:37:50.076Z,4.00
2018-06-11T12:40:18.317Z,4.27
2018-06-11T12:45:21.726Z,4.63
2018-06-11T12:47:49.916Z,4.20
2018-06-11T12:50:18.127Z,4.37
2018-06-11T12:52:46.355Z,4.53
2018-06-11T12:55:14.473Z,4.50
2018-06-11T12:57:42.617Z,4.13
2018-06-11T13:00:10.852Z,4.27
2018-06-11T13:02:39.031Z,3.83
2018-06-11T13:05:07.189Z,4.07
2018-06-11T13:07:35.460Z,4.40
2018-06-11T13:10:03.621Z,3.93
2018-06-11T13:12:32.292Z,4.30
2018-06-11T13:15:00.475Z,4.37
2018-06-11T13:17:28.691Z,4.60
2018-06-11T13:19:56.985Z,4.53
2018-06-11T13:22:25.164Z,5.43
2018-06-11T13:24:53.410Z,4.60
2018-06-11T13:27:21.593Z,4.20
2018-06-11T13:29:49.811Z,4.27
2018-06-11T13:32:18.176Z,4.67
2018-06-11T13:34:46.363Z,4.07
2018-06-11T13:37:15.216Z,4.40
2018-06-11T13:39:43.448Z,5.00
2018-06-11T13:42:11.628Z,6.87
2018-06-11T13:44:39.863Z,4.67
2018-06-11T13:47:08.049Z,4.67
2018-06-11T13:49:36.244Z,4.07
2018-06-11T13:52:04.469Z,6.33
2018-06-11T13:54:32.677Z,7.53
2018-06-11T13:57:02.856Z,4.23
2018-06-11T13:59:31.374Z,6.93
2018-06-11T14:01:59.532Z,4.67
2018-06-11T14:04:27.956Z,3.83
2018-06-11T14:06:56.244Z,4.30
2018-06-11T14:09:24.433Z,4.37
2018-06-11T14:11:52.672Z,4.57
2018-06-11T14:14:20.977Z,4.13
2018-06-11T14:16:49.432Z,4.50
2018-06-11T14:19:17.653Z,4.23
2018-06-11T14:21:46.009Z,3.90
2018-06-11T14:24:14.271Z,4.43
2018-06-11T14:26:42.465Z,4.17
2018-06-11T14:29:10.642Z,3.93
2018-06-11T14:31:38.860Z,4.37
2018-06-11T14:34:06.987Z,4.00
2018-06-11T14:36:35.318Z,4.77
2018-06-11T14:39:03.952Z,4.27
2018-06-11T14:41:32.340Z,4.43
2018-06-11T14:44:00.564Z,4.33
2018-06-11T14:46:28.794Z,4.63
2018-06-11T14:48:57.035Z,4.43
2018-06-11T14:51:25.240Z,7.10
2018-06-11T14:53:53.484Z,5.70
2018-06-11T14:56:21.685Z,7.17
2018-06-11T14:58:50.057Z,6.53
2018-06-11T15:01:18.351Z,5.87
2018-06-11T15:03:46.782Z,6.13
2018-06-11T15:06:14.987Z,4.30
2018-06-11T15:08:43.185Z,4.53
2018-06-11T15:11:11.481Z,5.73
2018-06-11T15:13:39.714Z,6.17
2018-06-11T15:16:07.907Z,4.60
2018-06-11T15:18:36.178Z,4.60
2018-06-11T15:21:04.337Z,10.07
2018-06-11T15:23:32.655Z,9.27
2018-06-11T15:26:00.969Z,5.93
2018-06-11T15:28:29.183Z,6.10
2018-06-11T15:30:57.384Z,4.50
2018-06-11T15:33:25.625Z,11.43
2018-06-11T15:35:53.847Z,4.40
2018-06-11T15:38:22.040Z,6.90
2018-06-11T15:40:50.268Z,5.20
2018-06-11T15:43:18.475Z,7.57
2018-06-11T15:45:46.753Z,14.17
2018-06-11T15:48:14.960Z,6.03
2018-06-11T15:50:43.280Z,5.03
2018-06-11T15:53:11.694Z,5.37
2018-06-11T15:55:39.965Z,5.47
2018-06-11T15:58:08.227Z,5.87
2018-06-11T16:00:36.561Z,4.93
2018-06-11T16:03:05.174Z,5.03
2018-06-11T16:05:33.401Z,5.73
2018-06-11T16:08:01.672Z,5.37
2018-06-11T16:10:29.838Z,4.77
2018-06-11T16:12:58.133Z,3.43
2018-06-11T16:15:26.358Z,2.90
2018-06-11T16:17:54.565Z,2.53
2018-06-11T16:20:22.816Z,2.13
2018-06-11T16:22:51.125Z,1.80
2018-06-11T16:25:19.295Z,2.10
2018-06-11T16:27:47.666Z,2.43
2018-06-11T16:30:15.910Z,2.40
2018-06-11T16:32:44.364Z,1.93
2018-06-11T16:35:12.594Z,2.00
2018-06-11T16:37:40.941Z,4.47
2018-06-11T16:40:09.142Z,2.27
2018-06-11T16:42:37.519Z,2.00
2018-06-11T16:45:06.074Z,1.87
2018-06-11T16:47:34.331Z,1.03
2018-06-11T16:50:02.593Z,1.40
2018-06-11T16:52:30.844Z,1.63
2018-06-11T16:54:59.031Z,1.20
2018-06-11T16:57:27.294Z,1.43
2018-06-11T16:59:55.551Z,1.40
2018-06-11T17:02:23.785Z,1.17
2018-06-11T17:04:52.105Z,1.20
2018-06-11T17:07:20.296Z,1.17
2018-06-11T17:09:48.704Z,1.13
2018-06-11T17:12:16.884Z,1.10
2018-06-11T17:14:45.460Z,1.40
2018-06-11T17:17:13.765Z,1.30
2018-06-11T17:19:41.984Z,2.47
2018-06-11T17:22:10.286Z,2.33
2018-06-11T17:24:38.604Z,2.13
2018-06-11T17:27:06.952Z,2.20
2018-06-11T17:29:35.386Z,1.60
2018-06-11T17:32:03.785Z,1.00
2018-06-11T17:34:32.203Z,8.30
2018-06-11T17:37:00.580Z,1.30
2018-06-11T17:39:28.937Z,1.50
2018-06-11T17:41:57.280Z,4.63
2018-06-11T17:44:25.610Z,15.40
2018-06-11T17:46:54.343Z,1.43
2018-06-11T17:49:22.710Z,14.23
2018-06-11T17:51:51.028Z,1.27
2018-06-11T17:54:19.464Z,3.97
2018-06-11T17:56:47.905Z,11.20
2018-06-11T17:59:16.240Z,2.20
2018-06-11T18:01:44.483Z,1.83
2018-06-11T18:04:12.882Z,1.90
2018-06-11T18:06:41.142Z,2.10
2018-06-11T18:09:09.816Z,1.90
2018-06-11T18:11:38.118Z,2.07
2018-06-11T18:14:06.378Z,2.43
2018-06-11T18:16:34.777Z,2.00
2018-06-11T18:19:03.372Z,1.60
2018-06-11T18:21:31.673Z,1.70
2018-06-11T18:24:00.140Z,1.77
2018-06-11T18:26:28.416Z,2.00
2018-06-11T18:28:56.834Z,2.00
2018-06-11T18:31:25.092Z,1.97
2018-06-11T18:33:54.073Z,3.07
2018-06-11T18:36:22.464Z,2.00
2018-06-11T18:38:51.497Z,1.90
2018-06-11T18:41:19.840Z,1.80
2018-06-11T18:43:48.051Z,2.33
2018-06-11T18:46:16.631Z,1.63
2018-06-11T18:48:49.210Z,3.57
2018-06-11T18:51:17.452Z,13.50
2018-06-11T18:53:45.805Z,7.23
2018-06-11T18:56:14.076Z,7.03
2018-06-11T18:58:42.464Z,5.20
2018-06-11T19:01:10.922Z,10.37
2018-06-11T19:03:39.244Z,6.00
2018-06-11T19:06:07.754Z,2.70
2018-06-11T19:08:36.070Z,2.93
2018-06-11T19:11:04.602Z,6.13
2018-06-11T19:13:33.071Z,3.50
2018-06-11T19:16:01.547Z,4.13
2018-06-11T19:18:29.986Z,4.53
2018-06-11T19:20:58.419Z,3.93
2018-06-11T19:23:26.864Z,7.23
2018-06-11T19:25:55.440Z,8.47
2018-06-11T19:28:23.725Z,3.80
2018-06-11T19:30:52.210Z,3.20
2018-06-11T19:33:21.523Z,4.07
2018-06-11T19:35:49.930Z,3.50
2018-06-11T19:38:18.221Z,3.20
2018-06-11T19:40:46.644Z,3.33
2018-06-11T19:43:15.055Z,3.10
2018-06-11T19:45:43.481Z,3.07
2018-06-11T19:48:11.723Z,3.00
2018-06-11T19:50:40.168Z,2.77
2018-06-11T19:53:08.772Z,3.30
2018-06-11T19:55:37.216Z,3.90
2018-06-11T19:58:05.494Z,4.07
2018-06-11T20:00:34.043Z,4.37
2018-06-11T20:03:02.295Z,4.73
2018-06-11T20:05:30.525Z,4.97
2018-06-11T20:07:59.167Z,5.03
2018-06-11T20:10:27.455Z,5.80
2018-06-11T20:12:55.690Z,6.63
2018-06-11T20:15:23.941Z,6.27
2018-06-11T20:17:52.216Z,19.43
2018-06-11T20:20:20.476Z,12.40
2018-06-11T20:22:48.717Z,20.57
2018-06-11T20:25:16.946Z,19.67
2018-06-11T20:27:45.115Z,8.23
2018-06-11T20:30:13.422Z,10.50
2018-06-11T20:32:41.949Z,9.10
2018-06-11T20:35:10.135Z,10.50
2018-06-11T20:37:38.518Z,10.80
2018-06-11T20:40:06.707Z,12.80
2018-06-11T20:42:34.862Z,11.13
2018-06-11T20:45:03.371Z,12.63
2018-06-11T20:47:31.644Z,11.77
2018-06-11T20:50:00.216Z,10.93
2018-06-11T20:52:28.526Z,11.43
2018-06-11T20:54:56.878Z,11.37
2018-06-11T20:57:25.220Z,10.33
2018-06-11T20:59:53.528Z,10.53
2018-06-11T21:02:21.792Z,10.80
2018-06-11T21:04:50.103Z,10.13
2018-06-11T21:07:18.484Z,12.53
2018-06-11T21:09:46.894Z,11.70
2018-06-11T21:12:15.139Z,11.33
2018-06-11T21:14:43.391Z,10.93
2018-06-11T21:17:11.639Z,11.20
2018-06-11T21:19:40.050Z,11.40
2018-06-11T21:22:08.294Z,11.23
2018-06-11T21:24:36.710Z,10.60
2018-06-11T21:27:05.204Z,10.97
2018-06-11T21:29:33.519Z,11.77
2018-06-11T21:32:01.698Z,11.57
2018-06-11T21:34:29.884Z,14.27
2018-06-11T21:36:58.161Z,12.50
2018-06-11T21:39:26.383Z,10.97
2018-06-11T21:41:54.564Z,10.53
2018-06-11T21:44:22.737Z,12.37
2018-06-11T21:46:50.934Z,10.03
2018-06-11T21:49:19.085Z,11.30
2018-06-11T21:51:47.342Z,25.97
2018-06-11T21:54:15.486Z,11.17
2018-06-11T21:56:43.747Z,10.10
2018-06-11T21:59:11.934Z,9.23
2018-06-11T22:01:40.132Z,10.80
2018-06-11T22:04:08.342Z,11.40
2018-06-11T22:06:36.516Z,9.90
2018-06-11T22:09:06.810Z,8.63
2018-06-11T22:11:35.030Z,8.47
2018-06-11T22:14:03.189Z,9.30
2018-06-11T22:16:31.311Z,9.10
2018-06-11T22:18:59.495Z,11.63
2018-06-11T22:21:27.631Z,18.37
2018-06-11T22:23:55.897Z,11.73
2018-06-11T22:26:24.197Z,8.77
2018-06-11T22:28:52.303Z,8.33
2018-06-11T22:31:20.523Z,8.80
2018-06-11T22:33:48.656Z,8.47
2018-06-11T22:36:16.992Z,7.90
2018-06-11T22:38:45.174Z,8.53
2018-06-11T22:41:13.605Z,8.00
2018-06-11T22:43:41.871Z,8.33
2018-06-11T22:46:10.092Z,8.37
2018-06-11T22:48:38.301Z,10.07
2018-06-11T22:51:06.517Z,8.43
2018-06-11T22:53:34.752Z,8.67
2018-06-11T22:56:02.988Z,8.10
2018-06-11T22:58:31.156Z,7.13
2018-06-11T23:00:59.600Z,7.73
2018-06-11T23:03:27.778Z,7.90
2018-06-11T23:05:56.141Z,8.23
2018-06-11T23:08:24.356Z,7.83
2018-06-11T23:10:52.548Z,9.10
2018-06-11T23:13:20.757Z,6.23
2018-06-11T23:15:49.734Z,7.50
2018-06-11T23:18:18.107Z,7.13
2018-06-11T23:20:46.307Z,7.13
2018-06-11T23:23:14.485Z,7.07
2018-06-11T23:25:42.690Z,7.73
2018-06-11T23:28:10.868Z,6.27
2018-06-11T23:30:39.176Z,6.17
2018-06-11T23:33:07.344Z,6.57
2018-06-11T23:35:35.514Z,6.60
2018-06-11T23:38:03.768Z,6.40
2018-06-11T23:40:31.948Z,7.00
2018-06-11T23:43:00.109Z,6.93
2018-06-11T23:45:28.326Z,5.87
2018-06-11T23:47:56.464Z,5.40
2018-06-11T23:50:24.687Z,5.37
2018-06-11T23:52:52.863Z,5.50
2018-06-11T23:55:21.158Z,6.03
2018-06-11T23:57:49.280Z,6.50
